createdAt,value
2023-04-20T00:01:25.540Z,101597.00
2023-04-20T00:03:52.676Z,101594.00
2023-04-20T00:06:21.787Z,101606.00
2023-04-20T00:08:48.944Z,101612.00
2023-04-20T00:11:15.757Z,101608.00
2023-04-20T00:13:43.068Z,101608.00
2023-04-20T00:16:09.913Z,101600.00
2023-04-20T00:18:36.668Z,101591.00
2023-04-20T00:21:04.200Z,101591.00
2023-04-20T00:23:30.935Z,101596.00
2023-04-20T00:25:57.679Z,101608.00
2023-04-20T00:28:24.472Z,101604.00
2023-04-20T00:30:51.207Z,101597.00
2023-04-20T00:33:18.005Z,101588.00
2023-04-20T00:35:44.799Z,101589.00
2023-04-20T00:38:11.529Z,101589.00
2023-04-20T00:40:38.462Z,101595.00
2023-04-20T00:43:12.834Z,101590.00
2023-04-20T00:45:39.744Z,101592.00
2023-04-20T00:48:07.696Z,101593.00
2023-04-20T00:50:35.327Z,101590.00
2023-04-20T00:53:03.198Z,101586.00
2023-04-20T00:55:31.208Z,101577.00
2023-04-20T00:57:58.890Z,101583.00
2023-04-20T01:00:27.317Z,101582.00
2023-04-20T01:02:54.321Z,101585.00
2023-04-20T01:05:21.775Z,101583.00
2023-04-20T01:07:49.258Z,101583.00
2023-04-20T01:10:16.209Z,101586.00
2023-04-20T01:12:42.945Z,101573.00
2023-04-20T01:15:10.776Z,101581.00
2023-04-20T01:17:40.460Z,101573.00
2023-04-20T01:20:11.588Z,101573.00
2023-04-20T01:22:46.326Z,101570.00
2023-04-20T01:25:13.255Z,101579.00
2023-04-20T01:27:40.026Z,101566.00
2023-04-20T01:30:07.690Z,101588.00
2023-04-20T01:32:34.860Z,101576.00
2023-04-20T01:35:03.167Z,101573.00
2023-04-20T01:37:30.476Z,101578.00
2023-04-20T01:39:57.687Z,101578.00
2023-04-20T01:42:24.470Z,101568.00
2023-04-20T01:44:51.176Z,101564.00
2023-04-20T01:47:19.071Z,101562.00
2023-04-20T01:49:45.787Z,101564.00
2023-04-20T01:52:12.559Z,101558.00
2023-04-20T01:54:39.344Z,101548.00
2023-04-20T01:57:06.089Z,101560.00
2023-04-20T01:59:32.949Z,101562.00
2023-04-20T02:01:59.749Z,101556.00
2023-04-20T02:04:26.717Z,101562.00
2023-04-20T02:06:53.498Z,101562.00
2023-04-20T02:09:20.761Z,101566.00
2023-04-20T02:11:47.486Z,101570.00
2023-04-20T02:14:14.278Z,101568.00
2023-04-20T02:16:42.788Z,101562.00
2023-04-20T02:19:09.932Z,101571.00
2023-04-20T02:21:36.703Z,101571.00
2023-04-20T02:24:03.877Z,101570.00
2023-04-20T02:26:30.601Z,101581.00
2023-04-20T02:28:57.417Z,101580.00
2023-04-20T02:31:24.245Z,101575.00
2023-04-20T02:33:51.494Z,101575.00
2023-04-20T02:36:18.284Z,101573.00
2023-04-20T02:38:45.025Z,101576.00
2023-04-20T02:41:11.747Z,101561.00
2023-04-20T02:43:38.484Z,101574.00
2023-04-20T02:46:05.378Z,101570.00
2023-04-20T02:48:32.256Z,101569.00
2023-04-20T02:50:58.982Z,101571.00
2023-04-20T02:53:25.844Z,101566.00
2023-04-20T02:55:52.568Z,101573.00
2023-04-20T02:58:19.299Z,101569.00
2023-04-20T03:00:46.096Z,101567.00
2023-04-20T03:03:12.956Z,101573.00
2023-04-20T03:05:39.812Z,101571.00
2023-04-20T03:08:07.280Z,101564.00
2023-04-20T03:10:34.008Z,101565.00
2023-04-20T03:13:00.755Z,101576.00
2023-04-20T03:15:27.499Z,101568.00
2023-04-20T03:17:54.233Z,101562.00
2023-04-20T03:20:20.980Z,101564.00
2023-04-20T03:22:47.737Z,101569.00
2023-04-20T03:25:14.471Z,101575.00
2023-04-20T03:27:41.167Z,101580.00
2023-04-20T03:30:08.955Z,101575.00
2023-04-20T03:32:36.477Z,101586.00
2023-04-20T03:35:03.583Z,101584.00
2023-04-20T03:37:31.755Z,101591.00
2023-04-20T03:39:58.506Z,101584.00
2023-04-20T03:42:25.893Z,101586.00
2023-04-20T03:44:52.695Z,101585.00
2023-04-20T03:47:19.457Z,101575.00
2023-04-20T03:49:46.198Z,101577.00
2023-04-20T03:52:13.171Z,101582.00
2023-04-20T03:54:39.955Z,101573.00
2023-04-20T03:57:06.756Z,101591.00
2023-04-20T03:59:33.535Z,101587.00
2023-04-20T04:02:02.589Z,101580.00
2023-04-20T04:04:29.957Z,101583.00
2023-04-20T04:06:56.889Z,101581.00
2023-04-20T04:09:26.507Z,101582.00
2023-04-20T04:11:53.235Z,101589.00
2023-04-20T04:14:20.113Z,101586.00
2023-04-20T04:16:46.955Z,101587.00
2023-04-20T04:19:13.700Z,101588.00
2023-04-20T04:21:41.369Z,101592.00
2023-04-20T04:24:08.299Z,101604.00
2023-04-20T04:26:35.105Z,101600.00
2023-04-20T04:29:02.063Z,101597.00
2023-04-20T04:31:28.979Z,101588.00
2023-04-20T04:33:56.360Z,101595.00
2023-04-20T04:36:24.245Z,101594.00
2023-04-20T04:38:51.382Z,101600.00
2023-04-20T04:41:18.688Z,101602.00
2023-04-20T04:43:46.204Z,101599.00
2023-04-20T04:46:14.438Z,101600.00
2023-04-20T04:48:42.306Z,101614.00
2023-04-20T04:51:09.721Z,101616.00
2023-04-20T04:53:36.876Z,101628.00
2023-04-20T04:56:04.893Z,101627.00
2023-04-20T04:58:32.060Z,101625.00
2023-04-20T05:00:58.809Z,101622.00
2023-04-20T05:03:25.939Z,101631.00
2023-04-20T05:05:52.917Z,101621.00
2023-04-20T05:08:21.346Z,101609.00
2023-04-20T05:10:48.116Z,101598.00
2023-04-20T05:13:14.865Z,101606.00
2023-04-20T05:15:43.409Z,101624.00
2023-04-20T05:18:11.043Z,101621.00
2023-04-20T05:20:38.156Z,101634.00
2023-04-20T05:23:04.918Z,101639.00
2023-04-20T05:25:32.825Z,101616.00
2023-04-20T05:27:59.782Z,101624.00
2023-04-20T05:30:26.738Z,101621.00
2023-04-20T05:32:53.512Z,101620.00
2023-04-20T05:35:21.461Z,101632.00
2023-04-20T05:37:48.693Z,101630.00
2023-04-20T05:40:15.922Z,101627.00
2023-04-20T05:42:42.894Z,101634.00
2023-04-20T05:45:10.815Z,101636.00
2023-04-20T05:47:37.608Z,101643.00
2023-04-20T05:50:07.558Z,101649.00
2023-04-20T05:52:34.429Z,101647.00
2023-04-20T05:55:01.304Z,101648.00
2023-04-20T05:57:28.229Z,101653.00
2023-04-20T05:59:56.127Z,101645.00
2023-04-20T06:02:23.082Z,101650.00
2023-04-20T06:04:50.262Z,101641.00
2023-04-20T06:07:17.573Z,101636.00
2023-04-20T06:09:44.386Z,101645.00
2023-04-20T06:12:11.201Z,101653.00
2023-04-20T06:14:37.942Z,101651.00
2023-04-20T06:17:04.683Z,101644.00
2023-04-20T06:19:31.671Z,101651.00
2023-04-20T06:22:00.703Z,101659.00
2023-04-20T06:24:27.965Z,101669.00
2023-04-20T06:26:54.999Z,101676.00
2023-04-20T06:29:21.743Z,101680.00
2023-04-20T06:31:48.557Z,101670.00
2023-04-20T06:34:16.239Z,101675.00
2023-04-20T06:36:43.772Z,101675.00
2023-04-20T06:39:13.672Z,101673.00
2023-04-20T06:41:40.565Z,101672.00
2023-04-20T06:44:07.440Z,101663.00
2023-04-20T06:46:34.528Z,101672.00
2023-04-20T06:49:01.541Z,101661.00
2023-04-20T06:51:29.181Z,101678.00
2023-04-20T06:53:56.576Z,101672.00
2023-04-20T06:56:24.077Z,101668.00
2023-04-20T06:58:51.017Z,101678.00
2023-04-20T07:01:17.841Z,101667.00
2023-04-20T07:03:46.814Z,101658.00
2023-04-20T07:06:13.888Z,101654.00
2023-04-20T07:08:41.055Z,101649.00
2023-04-20T07:11:07.807Z,101666.00
2023-04-20T07:13:34.567Z,101670.00
2023-04-20T07:16:01.375Z,101676.00
2023-04-20T07:18:28.279Z,101683.00
2023-04-20T07:20:55.284Z,101679.00
2023-04-20T07:23:22.011Z,101676.00
2023-04-20T07:25:48.779Z,101677.00
2023-04-20T07:28:15.590Z,101687.00
2023-04-20T07:30:42.322Z,101689.00
2023-04-20T07:33:11.116Z,101696.00
2023-04-20T07:35:37.931Z,101691.00
2023-04-20T07:38:04.696Z,101690.00
2023-04-20T07:40:31.426Z,101699.00
2023-04-20T07:42:58.220Z,101687.00
2023-04-20T07:45:25.132Z,101694.00
2023-04-20T07:47:53.972Z,101694.00
2023-04-20T07:50:21.661Z,101704.00
2023-04-20T07:52:48.397Z,101702.00
2023-04-20T07:55:15.823Z,101705.00
2023-04-20T07:57:42.744Z,101701.00
2023-04-20T08:00:11.526Z,101711.00
2023-04-20T08:02:39.432Z,101714.00
2023-04-20T08:05:06.947Z,101707.00
2023-04-20T08:07:33.878Z,101719.00
2023-04-20T08:10:01.383Z,101703.00
2023-04-20T08:12:28.216Z,101699.00
2023-04-20T08:14:55.008Z,101706.00
2023-04-20T08:17:21.988Z,101706.00
2023-04-20T08:19:48.727Z,101709.00
2023-04-20T08:22:15.550Z,101695.00
2023-04-20T08:24:42.359Z,101708.00
2023-04-20T08:27:09.535Z,101707.00
2023-04-20T08:29:36.706Z,101717.00
2023-04-20T08:32:04.211Z,101710.00
2023-04-20T08:34:31.077Z,101712.00
2023-04-20T08:36:57.858Z,101719.00
2023-04-20T08:39:24.633Z,101718.00
2023-04-20T08:41:55.514Z,101720.00
2023-04-20T08:44:23.316Z,101717.00
2023-04-20T08:46:51.292Z,101722.00
2023-04-20T08:49:19.898Z,101731.00
2023-04-20T08:51:48.278Z,101726.00
2023-04-20T08:54:16.225Z,101730.00
2023-04-20T08:56:46.348Z,101730.00
2023-04-20T08:59:14.439Z,101737.00
2023-04-20T09:01:43.827Z,101732.00
2023-04-20T09:04:23.731Z,101719.00
2023-04-20T09:06:54.917Z,101729.00
2023-04-20T09:09:24.268Z,101723.00
2023-04-20T09:12:07.725Z,101726.00
2023-04-20T09:14:48.564Z,101717.00
2023-04-20T09:17:17.856Z,101731.00
2023-04-20T09:19:51.979Z,101720.00
2023-04-20T09:22:33.864Z,101730.00
2023-04-20T09:25:11.849Z,101721.00
2023-04-20T09:27:38.642Z,101717.00
2023-04-20T09:30:06.880Z,101716.00
2023-04-20T09:32:34.391Z,101705.00
2023-04-20T09:35:01.296Z,101706.00
2023-04-20T09:37:28.168Z,101719.00
2023-04-20T09:40:00.761Z,101714.00
2023-04-20T09:42:29.096Z,101717.00
2023-04-20T09:44:57.393Z,101717.00
2023-04-20T09:47:26.642Z,101718.00
2023-04-20T09:49:54.963Z,101709.00
2023-04-20T09:52:22.769Z,101718.00
2023-04-20T09:54:51.791Z,101706.00
2023-04-20T09:57:19.819Z,101703.00
2023-04-20T09:59:47.615Z,101705.00
2023-04-20T10:02:15.018Z,101706.00
2023-04-20T10:04:58.929Z,101699.00
2023-04-20T10:07:32.002Z,101696.00
2023-04-20T10:10:13.358Z,101700.00
2023-04-20T10:12:55.801Z,101700.00
2023-04-20T10:15:24.318Z,101701.00
2023-04-20T10:17:51.651Z,101689.00
2023-04-20T10:20:23.206Z,101694.00
2023-04-20T10:22:52.908Z,101693.00
2023-04-20T10:25:24.728Z,101695.00
2023-04-20T10:28:01.635Z,101692.00
2023-04-20T10:30:29.393Z,101685.00
2023-04-20T10:33:13.345Z,101683.00
2023-04-20T10:35:55.055Z,101680.00
2023-04-20T10:38:35.782Z,101682.00
2023-04-20T10:41:09.705Z,101680.00
2023-04-20T10:43:38.966Z,101677.00
2023-04-20T10:46:22.315Z,101679.00
2023-04-20T10:48:55.141Z,101671.00
2023-04-20T10:51:22.800Z,101669.00
2023-04-20T10:54:07.731Z,101671.00
2023-04-20T10:56:47.141Z,101666.00
2023-04-20T10:59:20.854Z,101679.00
2023-04-20T11:01:48.487Z,101677.00
2023-04-20T11:04:22.024Z,101659.00
2023-04-20T11:06:48.821Z,101661.00
2023-04-20T11:09:26.350Z,101657.00
2023-04-20T11:12:02.939Z,101655.00
2023-04-20T11:14:38.433Z,101655.00
2023-04-20T11:17:06.672Z,101655.00
2023-04-20T11:19:36.923Z,101643.00
2023-04-20T11:22:06.339Z,101664.00
2023-04-20T11:24:34.548Z,101654.00
2023-04-20T11:27:04.439Z,101657.00
2023-04-20T11:29:34.804Z,101661.00
2023-04-20T11:32:08.102Z,101654.00
2023-04-20T11:34:38.428Z,101650.00
2023-04-20T11:37:10.465Z,101649.00
2023-04-20T11:39:38.157Z,101653.00
2023-04-20T11:42:06.258Z,101647.00
2023-04-20T11:44:33.985Z,101646.00
2023-04-20T11:47:01.785Z,101633.00
2023-04-20T11:49:29.608Z,101629.00
2023-04-20T11:51:56.354Z,101636.00
2023-04-20T11:54:24.188Z,101635.00
2023-04-20T11:56:51.605Z,101637.00
2023-04-20T11:59:20.054Z,101637.00
2023-04-20T12:01:48.016Z,101641.00
2023-04-20T12:04:15.871Z,101629.00
2023-04-20T12:06:43.208Z,101627.00
2023-04-20T12:09:09.971Z,101620.00
2023-04-20T12:11:36.788Z,101622.00
2023-04-20T12:14:04.574Z,101620.00
2023-04-20T12:16:31.770Z,101609.00
2023-04-20T12:18:58.896Z,101614.00
2023-04-20T12:21:25.696Z,101618.00
2023-04-20T12:23:52.892Z,101617.00
2023-04-20T12:26:19.627Z,101609.00
2023-04-20T12:28:46.339Z,101613.00
2023-04-20T12:31:13.286Z,101613.00
2023-04-20T12:33:40.051Z,101604.00
2023-04-20T12:36:06.957Z,101598.00
2023-04-20T12:38:33.747Z,101597.00
2023-04-20T12:41:00.715Z,101601.00
2023-04-20T12:43:28.534Z,101598.00
2023-04-20T12:45:55.291Z,101594.00
2023-04-20T12:48:22.144Z,101584.00
2023-04-20T12:50:49.523Z,101591.00
2023-04-20T12:53:16.347Z,101586.00
2023-04-20T12:55:43.145Z,101592.00
2023-04-20T12:58:09.876Z,101583.00
2023-04-20T13:00:36.679Z,101582.00
2023-04-20T13:03:03.935Z,101578.00
2023-04-20T13:05:30.898Z,101572.00
2023-04-20T13:07:57.770Z,101568.00
2023-04-20T13:10:24.635Z,101566.00
2023-04-20T13:12:54.260Z,101569.00
2023-04-20T13:15:31.834Z,101571.00
2023-04-20T13:18:06.041Z,101572.00
2023-04-20T13:20:33.753Z,101562.00
2023-04-20T13:23:01.698Z,101558.00
2023-04-20T13:25:32.698Z,101558.00
2023-04-20T13:28:02.854Z,101568.00
2023-04-20T13:30:29.732Z,101560.00
2023-04-20T13:32:56.552Z,101559.00
2023-04-20T13:35:24.503Z,101560.00
2023-04-20T13:37:51.509Z,101556.00
2023-04-20T13:40:18.280Z,101556.00
2023-04-20T13:42:45.072Z,101553.00
2023-04-20T13:45:12.758Z,101544.00
2023-04-20T13:47:40.395Z,101542.00
2023-04-20T13:50:08.532Z,101546.00
2023-04-20T13:52:35.671Z,101552.00
2023-04-20T13:55:02.425Z,101559.00
2023-04-20T13:57:31.615Z,101544.00
2023-04-20T14:00:00.737Z,101545.00
2023-04-20T14:02:29.153Z,101538.00
2023-04-20T14:04:56.768Z,101533.00
2023-04-20T14:07:23.746Z,101526.00
2023-04-20T14:09:50.998Z,101530.00
2023-04-20T14:12:18.814Z,101536.00
2023-04-20T14:14:46.098Z,101524.00
2023-04-20T14:17:13.037Z,101529.00
2023-04-20T14:19:39.795Z,101518.00
2023-04-20T14:22:06.534Z,101523.00
2023-04-20T14:24:33.394Z,101512.00
2023-04-20T14:27:00.488Z,101506.00
2023-04-20T14:29:27.312Z,101514.00
2023-04-20T14:31:54.284Z,101511.00
2023-04-20T14:34:21.075Z,101505.00
2023-04-20T14:36:48.357Z,101506.00
2023-04-20T14:39:15.567Z,101506.00
2023-04-20T14:41:42.328Z,101506.00
2023-04-20T14:44:09.036Z,101504.00
2023-04-20T14:46:36.029Z,101499.00
2023-04-20T14:49:03.276Z,101487.00
2023-04-20T14:51:30.835Z,101492.00
2023-04-20T14:53:57.608Z,101491.00
2023-04-20T14:56:25.265Z,101497.00
2023-04-20T14:58:52.341Z,101488.00
2023-04-20T15:01:19.110Z,101490.00
2023-04-20T15:03:46.265Z,101484.00
2023-04-20T15:06:13.437Z,101481.00
2023-04-20T15:08:40.195Z,101490.00
2023-04-20T15:11:06.975Z,101483.00
2023-04-20T15:13:33.920Z,101485.00
2023-04-20T15:16:00.700Z,101487.00
2023-04-20T15:18:27.540Z,101496.00
2023-04-20T15:20:54.755Z,101487.00
2023-04-20T15:23:22.077Z,101497.00
2023-04-20T15:25:48.849Z,101492.00
2023-04-20T15:28:15.753Z,101491.00
2023-04-20T15:30:42.650Z,101485.00
2023-04-20T15:33:09.594Z,101478.00
2023-04-20T15:35:36.698Z,101481.00
2023-04-20T15:38:03.805Z,101475.00
2023-04-20T15:40:30.632Z,101481.00
2023-04-20T15:42:57.361Z,101475.00
2023-04-20T15:45:24.220Z,101476.00
2023-04-20T15:47:51.411Z,101475.00
2023-04-20T15:50:18.805Z,101475.00
2023-04-20T15:52:49.408Z,101475.00
2023-04-20T15:55:16.571Z,101483.00
2023-04-20T15:57:44.480Z,101483.00
2023-04-20T16:00:12.591Z,101488.00
2023-04-20T16:02:40.240Z,101486.00
2023-04-20T16:05:08.079Z,101482.00
2023-04-20T16:07:35.013Z,101468.00
2023-04-20T16:10:02.993Z,101481.00
2023-04-20T16:12:29.771Z,101476.00
2023-04-20T16:14:57.254Z,101476.00
2023-04-20T16:17:24.217Z,101478.00
2023-04-20T16:19:51.095Z,101474.00
2023-04-20T16:22:17.881Z,101468.00
2023-04-20T16:24:44.983Z,101470.00
2023-04-20T16:27:11.820Z,101465.00
2023-04-20T16:29:38.759Z,101476.00
2023-04-20T16:32:06.287Z,101487.00
2023-04-20T16:34:33.390Z,101488.00
2023-04-20T16:37:00.120Z,101471.00
2023-04-20T16:39:26.890Z,101483.00
2023-04-20T16:41:54.153Z,101478.00
2023-04-20T16:44:21.248Z,101479.00
2023-04-20T16:46:51.709Z,101479.00
2023-04-20T16:49:18.966Z,101472.00
2023-04-20T16:51:45.851Z,101485.00
2023-04-20T16:54:12.885Z,101473.00
2023-04-20T16:56:40.576Z,101484.00
2023-04-20T16:59:07.926Z,101479.00
2023-04-20T17:01:34.885Z,101486.00
2023-04-20T17:04:02.565Z,101474.00
2023-04-20T17:06:29.588Z,101486.00
2023-04-20T17:09:01.337Z,101487.00
2023-04-20T17:11:28.150Z,101490.00
2023-04-20T17:13:54.943Z,101489.00
2023-04-20T17:16:21.733Z,101487.00
2023-04-20T17:18:48.490Z,101492.00
2023-04-20T17:21:15.266Z,101492.00
2023-04-20T17:23:42.068Z,101498.00
2023-04-20T17:26:09.029Z,101494.00
2023-04-20T17:28:35.923Z,101499.00
2023-04-20T17:31:02.720Z,101499.00
2023-04-20T17:33:29.511Z,101495.00
2023-04-20T17:35:57.099Z,101493.00
2023-04-20T17:38:24.195Z,101494.00
2023-04-20T17:40:50.936Z,101490.00
2023-04-20T17:43:17.685Z,101501.00
2023-04-20T17:45:45.221Z,101495.00
2023-04-20T17:48:12.078Z,101500.00
2023-04-20T17:50:38.881Z,101491.00
2023-04-20T17:53:06.859Z,101502.00
2023-04-20T17:55:34.879Z,101496.00
2023-04-20T17:58:01.926Z,101505.00
2023-04-20T18:00:28.822Z,101506.00
2023-04-20T18:02:56.092Z,101504.00
2023-04-20T18:05:23.055Z,101520.00
2023-04-20T18:07:49.827Z,101511.00
2023-04-20T18:10:16.622Z,101518.00
2023-04-20T18:12:44.904Z,101529.00
2023-04-20T18:15:12.740Z,101512.00
2023-04-20T18:17:39.570Z,101516.00
2023-04-20T18:20:08.497Z,101522.00
2023-04-20T18:22:37.121Z,101515.00
2023-04-20T18:25:04.731Z,101525.00
2023-04-20T18:27:31.534Z,101517.00
2023-04-20T18:30:01.276Z,101529.00
2023-04-20T18:32:28.589Z,101525.00
2023-04-20T18:34:55.370Z,101529.00
2023-04-20T18:37:22.119Z,101526.00
2023-04-20T18:39:48.847Z,101519.00
2023-04-20T18:42:15.604Z,101530.00
2023-04-20T18:44:42.384Z,101529.00
2023-04-20T18:47:09.253Z,101540.00
2023-04-20T18:49:36.355Z,101535.00
2023-04-20T18:52:04.527Z,101529.00
2023-04-20T18:54:31.314Z,101529.00
2023-04-20T18:56:58.256Z,101520.00
2023-04-20T18:59:25.060Z,101532.00
2023-04-20T19:01:52.515Z,101526.00
2023-04-20T19:04:20.441Z,101527.00
2023-04-20T19:06:47.692Z,101524.00
2023-04-20T19:09:14.899Z,101533.00
2023-04-20T19:11:42.062Z,101531.00
2023-04-20T19:14:08.983Z,101536.00
2023-04-20T19:16:35.882Z,101536.00
2023-04-20T19:19:03.856Z,101527.00
2023-04-20T19:21:32.302Z,101533.00
2023-04-20T19:23:59.120Z,101527.00
2023-04-20T19:26:25.982Z,101528.00
2023-04-20T19:28:53.437Z,101533.00
2023-04-20T19:31:20.299Z,101525.00
2023-04-20T19:33:47.191Z,101520.00
2023-04-20T19:36:13.990Z,101523.00
2023-04-20T19:38:40.950Z,101535.00
2023-04-20T19:41:07.748Z,101524.00
2023-04-20T19:43:36.211Z,101529.00
2023-04-20T19:46:03.248Z,101529.00
2023-04-20T19:48:30.089Z,101528.00
2023-04-20T19:50:57.727Z,101532.00
2023-04-20T19:53:25.941Z,101528.00
2023-04-20T19:55:52.829Z,101537.00
2023-04-20T19:58:19.709Z,101535.00
2023-04-20T20:00:46.675Z,101533.00
2023-04-20T20:03:15.790Z,101528.00
2023-04-20T20:05:44.514Z,101530.00
2023-04-20T20:08:11.650Z,101529.00
2023-04-20T20:10:38.527Z,101524.00
2023-04-20T20:13:05.770Z,101535.00
2023-04-20T20:15:32.563Z,101532.00
2023-04-20T20:17:59.594Z,101532.00
2023-04-20T20:20:32.357Z,101533.00
2023-04-20T20:23:00.405Z,101532.00
2023-04-20T20:25:27.227Z,101543.00
2023-04-20T20:27:54.319Z,101537.00
2023-04-20T20:30:21.230Z,101541.00
2023-04-20T20:32:48.224Z,101534.00
2023-04-20T20:35:15.082Z,101548.00
2023-04-20T20:37:42.203Z,101536.00
2023-04-20T20:40:15.081Z,101538.00
2023-04-20T20:42:42.648Z,101539.00
2023-04-20T20:45:12.575Z,101539.00
2023-04-20T20:47:41.338Z,101530.00
2023-04-20T20:50:10.538Z,101543.00
2023-04-20T20:52:39.196Z,101527.00
2023-04-20T20:55:08.836Z,101534.00
2023-04-20T20:57:36.041Z,101534.00
2023-04-20T21:00:08.180Z,101531.00
2023-04-20T21:02:35.820Z,101534.00
2023-04-20T21:05:03.670Z,101536.00
2023-04-20T21:07:30.408Z,101540.00
2023-04-20T21:09:57.175Z,101534.00
2023-04-20T21:12:23.933Z,101544.00
2023-04-20T21:14:52.199Z,101534.00
2023-04-20T21:17:19.636Z,101538.00
2023-04-20T21:19:46.351Z,101538.00
2023-04-20T21:22:13.127Z,101537.00
2023-04-20T21:24:39.911Z,101531.00
2023-04-20T21:27:06.675Z,101533.00
2023-04-20T21:29:33.800Z,101534.00
2023-04-20T21:32:00.651Z,101538.00
2023-04-20T21:34:27.736Z,101530.00
2023-04-20T21:36:54.658Z,101546.00
2023-04-20T21:39:21.469Z,101539.00
2023-04-20T21:41:48.639Z,101530.00
2023-04-20T21:44:15.393Z,101544.00
2023-04-20T21:46:42.176Z,101535.00
2023-04-20T21:49:08.987Z,101533.00
2023-04-20T21:51:35.814Z,101540.00
2023-04-20T21:54:02.597Z,101532.00
2023-04-20T21:56:29.307Z,101544.00
2023-04-20T21:58:56.061Z,101546.00
2023-04-20T22:01:22.876Z,101537.00
2023-04-20T22:03:49.890Z,101541.00
2023-04-20T22:06:16.692Z,101547.00
2023-04-20T22:08:44.737Z,101546.00
2023-04-20T22:11:11.629Z,101533.00
2023-04-20T22:13:38.340Z,101554.00
2023-04-20T22:16:06.054Z,101545.00
2023-04-20T22:18:32.900Z,101547.00
2023-04-20T22:20:59.632Z,101553.00
2023-04-20T22:23:26.373Z,101535.00
2023-04-20T22:25:53.091Z,101544.00
2023-04-20T22:28:19.808Z,101547.00
2023-04-20T22:30:46.574Z,101552.00
2023-04-20T22:33:13.284Z,101555.00
2023-04-20T22:35:40.069Z,101540.00
2023-04-20T22:38:06.866Z,101552.00
2023-04-20T22:40:33.601Z,101552.00
2023-04-20T22:43:00.360Z,101557.00
2023-04-20T22:45:27.135Z,101549.00
2023-04-20T22:47:54.286Z,101555.00
2023-04-20T22:50:21.198Z,101556.00
2023-04-20T22:52:49.571Z,101549.00
2023-04-20T22:55:16.423Z,101552.00
2023-04-20T22:57:43.412Z,101560.00
2023-04-20T23:00:13.507Z,101564.00
2023-04-20T23:02:41.487Z,101557.00
2023-04-20T23:05:09.264Z,101562.00
2023-04-20T23:07:36.359Z,101566.00
2023-04-20T23:10:04.624Z,101558.00
2023-04-20T23:12:32.406Z,101557.00
2023-04-20T23:15:02.715Z,101561.00
2023-04-20T23:17:30.765Z,101554.00
2023-04-20T23:19:57.622Z,101557.00
2023-04-20T23:22:24.494Z,101558.00
2023-04-20T23:24:51.314Z,101557.00
2023-04-20T23:27:18.541Z,101552.00
2023-04-20T23:29:45.374Z,101559.00
2023-04-20T23:32:12.258Z,101556.00
2023-04-20T23:34:39.026Z,101549.00
2023-04-20T23:37:06.160Z,101556.00
2023-04-20T23:39:37.624Z,101557.00
2023-04-20T23:42:05.544Z,101549.00
2023-04-20T23:44:32.301Z,101541.00
2023-04-20T23:46:59.065Z,101565.00
2023-04-20T23:49:25.869Z,101562.00
2023-04-20T23:51:52.797Z,101561.00
2023-04-20T23:54:19.803Z,101558.00
2023-04-20T23:56:46.637Z,101566.00
2023-04-20T23:59:13.387Z,101555.00
